Chattaroy, WA (99003)

10:02 PM PDT on July 27, 2016 (GMT -0700)
Mt. Kit Carson | | Change Station

Elev 2887 ft 47.89 °N, 117.19 °W | Updated 42 seconds ago

Clear
Clear
68.7 °F
Feels Like 68.7 °F
N
0.0
Wind Variable Wind from ENE
Gusts 0.0 mph

Today
High -- | Low -- °F
--% Chance of Precip.
Yesterday
High -- | Low -- °F
Precip. -- in
Pressure 30.00 in
Visibility 10.0 miles
Clouds Clear
Dew Point 54 °F
Humidity 59%
Rainfall 0.00 in
Snow Depth Not available.
5:20 AM 8:30 PM
Waning Crescent, 36% visible
METAR KDEW 280453Z AUTO 33003KT 10SM CLR 20/14 A3004 RMK AO2 SLP158 T02000139
Pressure 30.00 in
Visibility 10.0 miles
Clouds Clear
Dew Point 54 °F
Humidity 59%
Rainfall 0.00 in
Snow Depth Not available.
5:20 AM 8:30 PM
Waning Crescent, 36% visible
METAR KDEW 280453Z AUTO 33003KT 10SM CLR 20/14 A3004 RMK AO2 SLP158 T02000139

10-Day Weather Forecast

Almanac

Astronomy

Jul. 27, 2016 Rise Set
Actual Time
Civil Twilight
Nautical Twilight
Astronomical Twilight
Moon
Length of Visible Light
Length of Day
Tomorrow will be .
, % of the Moon is Illuminated

Today's Extremes

State Highs State Lows

Community

WunderPhotos

Upload Photos

1,928,060 photos uploaded!

WunderBlog® & News

Nearby

Air Quality

  Air Quality AQ Index Pollutant
Not available.

Snow Depth

Station Depth Elevation

Earthquake Activity

City Distance Mag. Time & Date
Minimum magnitude displayed is 2.5.

Coastal Water Temperatures

Place Temperature

Stations

Nearby Weather Stations

Station Location Temp. Windchill Dew Point Humidity Wind Precip. Elev Updated Type
                   

Watches & Warnings

There are currently no watches in effect.